sensor_id;sensor_type;location;lat;lon;timestamp;P1;durP1;ratioP1;P2;durP2;ratioP2
36671;SDS011;22663;47.412;9.742;2022-11-20T00:03:32;1.85;;;1.00;;
36671;SDS011;22663;47.412;9.742;2022-11-20T00:06:05;2.25;;;0.75;;
36671;SDS011;22663;47.412;9.742;2022-11-20T00:08:32;2.03;;;0.95;;
36671;SDS011;22663;47.412;9.742;2022-11-20T00:11:02;1.65;;;0.85;;
36671;SDS011;22663;47.412;9.742;2022-11-20T00:13:28;2.05;;;1.00;;
36671;SDS011;22663;47.412;9.742;2022-11-20T00:15:57;3.47;;;0.75;;
36671;SDS011;22663;47.412;9.742;2022-11-20T00:18:23;1.52;;;0.80;;
36671;SDS011;22663;47.412;9.742;2022-11-20T00:20:49;1.50;;;0.75;;
36671;SDS011;22663;47.412;9.742;2022-11-20T00:23:15;1.25;;;0.77;;
36671;SDS011;22663;47.412;9.742;2022-11-20T00:25:41;1.98;;;0.93;;
36671;SDS011;22663;47.412;9.742;2022-11-20T00:28:07;1.77;;;0.90;;
36671;SDS011;22663;47.412;9.742;2022-11-20T00:30:33;2.05;;;1.02;;
36671;SDS011;22663;47.412;9.742;2022-11-20T00:32:59;1.80;;;0.88;;
36671;SDS011;22663;47.412;9.742;2022-11-20T00:35:26;1.95;;;0.90;;
36671;SDS011;22663;47.412;9.742;2022-11-20T00:37:52;1.88;;;1.00;;
36671;SDS011;22663;47.412;9.742;2022-11-20T00:40:18;3.00;;;0.90;;
36671;SDS011;22663;47.412;9.742;2022-11-20T00:42:44;1.55;;;0.98;;
36671;SDS011;22663;47.412;9.742;2022-11-20T00:45:10;1.55;;;0.68;;
36671;SDS011;22663;47.412;9.742;2022-11-20T00:47:36;2.05;;;0.90;;
36671;SDS011;22663;47.412;9.742;2022-11-20T00:50:02;2.80;;;1.02;;
36671;SDS011;22663;47.412;9.742;2022-11-20T00:52:28;1.52;;;0.98;;
36671;SDS011;22663;47.412;9.742;2022-11-20T00:54:54;3.15;;;1.27;;
36671;SDS011;22663;47.412;9.742;2022-11-20T00:57:20;2.03;;;1.00;;
36671;SDS011;22663;47.412;9.742;2022-11-20T00:59:46;1.40;;;0.93;;
36671;SDS011;22663;47.412;9.742;2022-11-20T01:02:12;1.17;;;0.75;;
36671;SDS011;22663;47.412;9.742;2022-11-20T01:04:40;2.67;;;0.80;;
36671;SDS011;22663;47.412;9.742;2022-11-20T01:07:06;0.60;;;0.60;;
36671;SDS011;22663;47.412;9.742;2022-11-20T01:09:32;2.88;;;0.90;;
36671;SDS011;22663;47.412;9.742;2022-11-20T01:11:58;1.35;;;0.90;;
36671;SDS011;22663;47.412;9.742;2022-11-20T01:14:25;1.52;;;1.00;;
36671;SDS011;22663;47.412;9.742;2022-11-20T01:16:51;2.85;;;1.10;;
36671;SDS011;22663;47.412;9.742;2022-11-20T01:19:19;1.80;;;0.90;;
36671;SDS011;22663;47.412;9.742;2022-11-20T01:21:46;2.45;;;1.00;;
36671;SDS011;22663;47.412;9.742;2022-11-20T01:24:15;2.05;;;0.93;;
36671;SDS011;22663;47.412;9.742;2022-11-20T01:26:43;2.08;;;1.40;;
36671;SDS011;22663;47.412;9.742;2022-11-20T01:29:12;1.98;;;0.88;;
36671;SDS011;22663;47.412;9.742;2022-11-20T01:31:39;4.07;;;1.15;;
36671;SDS011;22663;47.412;9.742;2022-11-20T01:34:06;3.22;;;0.93;;
36671;SDS011;22663;47.412;9.742;2022-11-20T01:36:33;2.00;;;0.50;;
36671;SDS011;22663;47.412;9.742;2022-11-20T01:39:02;1.40;;;0.70;;
36671;SDS011;22663;47.412;9.742;2022-11-20T01:41:29;1.38;;;0.90;;
36671;SDS011;22663;47.412;9.742;2022-11-20T01:44:15;2.05;;;0.90;;
36671;SDS011;22663;47.412;9.742;2022-11-20T01:47:16;1.80;;;0.85;;
36671;SDS011;22663;47.412;9.742;2022-11-20T01:49:47;1.00;;;0.80;;
36671;SDS011;22663;47.412;9.742;2022-11-20T01:52:18;2.47;;;1.33;;
36671;SDS011;22663;47.412;9.742;2022-11-20T01:54:49;3.00;;;1.20;;
36671;SDS011;22663;47.412;9.742;2022-11-20T01:57:17;3.45;;;1.48;;
36671;SDS011;22663;47.412;9.742;2022-11-20T01:59:44;1.90;;;1.13;;
36671;SDS011;22663;47.412;9.742;2022-11-20T02:02:13;1.70;;;1.20;;
36671;SDS011;22663;47.412;9.742;2022-11-20T02:04:40;1.80;;;1.10;;
36671;SDS011;22663;47.412;9.742;2022-11-20T02:07:06;3.00;;;1.58;;
36671;SDS011;22663;47.412;9.742;2022-11-20T02:09:33;5.85;;;1.40;;
36671;SDS011;22663;47.412;9.742;2022-11-20T02:11:59;2.22;;;0.82;;
36671;SDS011;22663;47.412;9.742;2022-11-20T02:14:25;1.98;;;0.90;;
36671;SDS011;22663;47.412;9.742;2022-11-20T02:16:51;1.77;;;0.65;;
36671;SDS011;22663;47.412;9.742;2022-11-20T02:24:18;3.20;;;0.80;;
36671;SDS011;22663;47.412;9.742;2022-11-20T02:26:52;1.38;;;1.00;;
36671;SDS011;22663;47.412;9.742;2022-11-20T02:29:23;2.30;;;0.90;;
36671;SDS011;22663;47.412;9.742;2022-11-20T02:31:50;1.52;;;0.88;;
36671;SDS011;22663;47.412;9.742;2022-11-20T02:34:17;2.33;;;0.82;;
36671;SDS011;22663;47.412;9.742;2022-11-20T02:36:43;1.30;;;0.70;;
36671;SDS011;22663;47.412;9.742;2022-11-20T02:39:11;2.45;;;0.85;;
36671;SDS011;22663;47.412;9.742;2022-11-20T02:41:37;2.10;;;1.00;;
36671;SDS011;22663;47.412;9.742;2022-11-20T02:44:04;1.92;;;0.98;;
36671;SDS011;22663;47.412;9.742;2022-11-20T02:46:31;2.47;;;1.10;;
36671;SDS011;22663;47.412;9.742;2022-11-20T02:48:57;1.10;;;0.82;;
36671;SDS011;22663;47.412;9.742;2022-11-20T02:51:24;1.80;;;0.90;;
36671;SDS011;22663;47.412;9.742;2022-11-20T02:53:50;1.58;;;0.82;;
36671;SDS011;22663;47.412;9.742;2022-11-20T02:56:16;1.85;;;0.70;;
36671;SDS011;22663;47.412;9.742;2022-11-20T02:58:42;1.42;;;0.80;;
36671;SDS011;22663;47.412;9.742;2022-11-20T03:01:08;3.15;;;1.10;;
36671;SDS011;22663;47.412;9.742;2022-11-20T03:03:34;1.55;;;1.00;;
36671;SDS011;22663;47.412;9.742;2022-11-20T03:06:00;2.15;;;0.63;;
36671;SDS011;22663;47.412;9.742;2022-11-20T03:08:26;3.05;;;1.08;;
36671;SDS011;22663;47.412;9.742;2022-11-20T03:10:53;1.75;;;0.73;;
36671;SDS011;22663;47.412;9.742;2022-11-20T03:13:19;2.65;;;1.27;;
36671;SDS011;22663;47.412;9.742;2022-11-20T03:15:45;2.03;;;1.00;;
36671;SDS011;22663;47.412;9.742;2022-11-20T03:18:11;1.58;;;1.08;;
36671;SDS011;22663;47.412;9.742;2022-11-20T03:20:39;2.78;;;1.20;;
36671;SDS011;22663;47.412;9.742;2022-11-20T03:23:05;1.83;;;0.77;;
36671;SDS011;22663;47.412;9.742;2022-11-20T03:25:31;2.47;;;1.00;;
36671;SDS011;22663;47.412;9.742;2022-11-20T03:27:57;1.27;;;0.90;;
36671;SDS011;22663;47.412;9.742;2022-11-20T03:30:23;1.48;;;0.88;;
36671;SDS011;22663;47.412;9.742;2022-11-20T03:32:52;1.73;;;1.00;;
36671;SDS011;22663;47.412;9.742;2022-11-20T03:35:18;1.45;;;1.23;;
36671;SDS011;22663;47.412;9.742;2022-11-20T03:37:44;1.90;;;0.98;;
36671;SDS011;22663;47.412;9.742;2022-11-20T03:40:10;1.75;;;1.17;;
36671;SDS011;22663;47.412;9.742;2022-11-20T03:42:37;2.15;;;1.10;;
36671;SDS011;22663;47.412;9.742;2022-11-20T03:45:16;1.33;;;1.10;;
36671;SDS011;22663;47.412;9.742;2022-11-20T03:47:42;1.40;;;0.90;;
36671;SDS011;22663;47.412;9.742;2022-11-20T03:50:09;2.33;;;1.10;;
36671;SDS011;22663;47.412;9.742;2022-11-20T03:52:35;2.92;;;0.90;;
36671;SDS011;22663;47.412;9.742;2022-11-20T03:55:01;2.22;;;1.15;;
36671;SDS011;22663;47.412;9.742;2022-11-20T03:57:27;2.45;;;0.80;;
36671;SDS011;22663;47.412;9.742;2022-11-20T03:59:53;2.05;;;0.90;;
36671;SDS011;22663;47.412;9.742;2022-11-20T04:02:19;1.33;;;0.75;;
36671;SDS011;22663;47.412;9.742;2022-11-20T04:04:45;1.00;;;0.70;;
36671;SDS011;22663;47.412;9.742;2022-11-20T04:07:11;2.15;;;0.90;;
36671;SDS011;22663;47.412;9.742;2022-11-20T04:09:37;3.00;;;1.20;;
36671;SDS011;22663;47.412;9.742;2022-11-20T04:12:03;1.23;;;0.93;;
36671;SDS011;22663;47.412;9.742;2022-11-20T04:14:30;1.92;;;1.20;;
36671;SDS011;22663;47.412;9.742;2022-11-20T04:16:56;1.42;;;0.70;;
36671;SDS011;22663;47.412;9.742;2022-11-20T04:19:22;1.67;;;0.73;;
36671;SDS011;22663;47.412;9.742;2022-11-20T04:21:48;1.20;;;0.80;;
36671;SDS011;22663;47.412;9.742;2022-11-20T04:24:14;1.80;;;1.20;;
36671;SDS011;22663;47.412;9.742;2022-11-20T04:26:40;2.25;;;0.90;;
36671;SDS011;22663;47.412;9.742;2022-11-20T04:29:06;1.98;;;1.00;;
36671;SDS011;22663;47.412;9.742;2022-11-20T04:31:33;2.40;;;1.65;;
36671;SDS011;22663;47.412;9.742;2022-11-20T04:33:59;3.05;;;2.08;;
36671;SDS011;22663;47.412;9.742;2022-11-20T04:36:26;2.25;;;0.90;;
36671;SDS011;22663;47.412;9.742;2022-11-20T04:38:53;2.28;;;1.13;;
36671;SDS011;22663;47.412;9.742;2022-11-20T04:41:20;1.85;;;1.00;;
36671;SDS011;22663;47.412;9.742;2022-11-20T04:43:50;2.22;;;0.93;;
36671;SDS011;22663;47.412;9.742;2022-11-20T04:46:17;3.25;;;1.10;;
36671;SDS011;22663;47.412;9.742;2022-11-20T04:48:44;3.00;;;0.90;;
36671;SDS011;22663;47.412;9.742;2022-11-20T04:51:10;2.17;;;0.85;;
36671;SDS011;22663;47.412;9.742;2022-11-20T04:53:36;1.25;;;0.90;;
36671;SDS011;22663;47.412;9.742;2022-11-20T04:56:03;3.90;;;0.95;;
36671;SDS011;22663;47.412;9.742;2022-11-20T04:58:30;1.52;;;1.17;;
36671;SDS011;22663;47.412;9.742;2022-11-20T05:03:28;3.60;;;0.65;;
36671;SDS011;22663;47.412;9.742;2022-11-20T05:05:54;0.85;;;0.70;;
36671;SDS011;22663;47.412;9.742;2022-11-20T05:08:20;1.77;;;0.60;;
36671;SDS011;22663;47.412;9.742;2022-11-20T05:10:46;1.08;;;0.60;;
36671;SDS011;22663;47.412;9.742;2022-11-20T05:13:12;1.63;;;0.68;;
36671;SDS011;22663;47.412;9.742;2022-11-20T05:15:38;0.90;;;0.73;;
36671;SDS011;22663;47.412;9.742;2022-11-20T05:18:04;0.77;;;0.60;;
36671;SDS011;22663;47.412;9.742;2022-11-20T05:20:30;1.17;;;0.77;;
36671;SDS011;22663;47.412;9.742;2022-11-20T05:22:57;2.13;;;1.27;;
36671;SDS011;22663;47.412;9.742;2022-11-20T05:25:23;1.70;;;1.00;;
36671;SDS011;22663;47.412;9.742;2022-11-20T05:27:49;1.38;;;1.00;;
36671;SDS011;22663;47.412;9.742;2022-11-20T05:30:15;1.45;;;1.00;;
36671;SDS011;22663;47.412;9.742;2022-11-20T05:32:41;1.48;;;0.75;;
36671;SDS011;22663;47.412;9.742;2022-11-20T05:35:07;1.60;;;0.82;;
36671;SDS011;22663;47.412;9.742;2022-11-20T05:37:33;2.30;;;0.90;;
36671;SDS011;22663;47.412;9.742;2022-11-20T05:39:59;1.55;;;0.50;;
36671;SDS011;22663;47.412;9.742;2022-11-20T05:42:25;1.02;;;0.70;;
36671;SDS011;22663;47.412;9.742;2022-11-20T05:44:57;1.70;;;0.70;;
36671;SDS011;22663;47.412;9.742;2022-11-20T05:47:24;1.90;;;0.60;;
36671;SDS011;22663;47.412;9.742;2022-11-20T05:49:50;0.85;;;0.70;;
36671;SDS011;22663;47.412;9.742;2022-11-20T05:52:16;1.70;;;0.75;;
36671;SDS011;22663;47.412;9.742;2022-11-20T05:54:42;0.88;;;0.50;;
36671;SDS011;22663;47.412;9.742;2022-11-20T05:57:08;0.88;;;0.68;;
36671;SDS011;22663;47.412;9.742;2022-11-20T05:59:34;1.23;;;0.43;;
36671;SDS011;22663;47.412;9.742;2022-11-20T06:02:00;1.13;;;0.68;;
36671;SDS011;22663;47.412;9.742;2022-11-20T06:04:26;1.10;;;0.52;;
36671;SDS011;22663;47.412;9.742;2022-11-20T06:06:52;1.33;;;0.63;;
36671;SDS011;22663;47.412;9.742;2022-11-20T06:09:18;0.77;;;0.63;;
36671;SDS011;22663;47.412;9.742;2022-11-20T06:11:44;1.73;;;0.60;;
36671;SDS011;22663;47.412;9.742;2022-11-20T06:14:10;0.98;;;0.50;;
36671;SDS011;22663;47.412;9.742;2022-11-20T06:16:36;1.52;;;0.73;;
36671;SDS011;22663;47.412;9.742;2022-11-20T06:19:02;2.58;;;0.55;;
36671;SDS011;22663;47.412;9.742;2022-11-20T06:21:28;1.33;;;0.52;;
36671;SDS011;22663;47.412;9.742;2022-11-20T06:23:54;4.15;;;0.70;;
36671;SDS011;22663;47.412;9.742;2022-11-20T06:26:25;1.73;;;0.57;;
36671;SDS011;22663;47.412;9.742;2022-11-20T06:28:52;0.70;;;0.50;;
36671;SDS011;22663;47.412;9.742;2022-11-20T06:31:20;1.45;;;0.50;;
36671;SDS011;22663;47.412;9.742;2022-11-20T06:33:46;0.75;;;0.50;;
36671;SDS011;22663;47.412;9.742;2022-11-20T06:36:13;0.70;;;0.50;;
36671;SDS011;22663;47.412;9.742;2022-11-20T06:38:40;1.30;;;0.90;;
36671;SDS011;22663;47.412;9.742;2022-11-20T06:41:07;0.93;;;0.60;;
36671;SDS011;22663;47.412;9.742;2022-11-20T06:43:33;1.20;;;0.60;;
36671;SDS011;22663;47.412;9.742;2022-11-20T06:45:59;0.63;;;0.47;;
36671;SDS011;22663;47.412;9.742;2022-11-20T06:48:28;0.68;;;0.57;;
36671;SDS011;22663;47.412;9.742;2022-11-20T06:50:54;1.77;;;0.60;;
36671;SDS011;22663;47.412;9.742;2022-11-20T06:53:21;1.17;;;0.50;;
36671;SDS011;22663;47.412;9.742;2022-11-20T06:55:47;2.28;;;0.60;;
36671;SDS011;22663;47.412;9.742;2022-11-20T06:58:14;1.30;;;0.70;;
36671;SDS011;22663;47.412;9.742;2022-11-20T07:00:40;0.80;;;0.60;;
36671;SDS011;22663;47.412;9.742;2022-11-20T07:03:07;1.77;;;1.10;;
36671;SDS011;22663;47.412;9.742;2022-11-20T07:05:33;1.42;;;0.93;;
36671;SDS011;22663;47.412;9.742;2022-11-20T07:08:00;1.63;;;0.70;;
36671;SDS011;22663;47.412;9.742;2022-11-20T07:10:26;1.85;;;0.98;;
36671;SDS011;22663;47.412;9.742;2022-11-20T07:12:52;2.53;;;0.80;;
36671;SDS011;22663;47.412;9.742;2022-11-20T07:15:20;3.45;;;1.05;;
36671;SDS011;22663;47.412;9.742;2022-11-20T07:17:46;2.20;;;0.63;;
36671;SDS011;22663;47.412;9.742;2022-11-20T07:20:12;1.60;;;0.73;;
36671;SDS011;22663;47.412;9.742;2022-11-20T07:22:38;1.92;;;0.90;;
36671;SDS011;22663;47.412;9.742;2022-11-20T07:25:04;1.50;;;0.88;;
36671;SDS011;22663;47.412;9.742;2022-11-20T07:27:31;2.17;;;0.90;;
36671;SDS011;22663;47.412;9.742;2022-11-20T07:29:57;1.88;;;0.93;;
36671;SDS011;22663;47.412;9.742;2022-11-20T07:32:23;3.45;;;2.03;;
36671;SDS011;22663;47.412;9.742;2022-11-20T07:34:49;3.13;;;2.08;;
36671;SDS011;22663;47.412;9.742;2022-11-20T07:37:15;3.42;;;2.03;;
36671;SDS011;22663;47.412;9.742;2022-11-20T07:39:42;7.90;;;2.42;;
36671;SDS011;22663;47.412;9.742;2022-11-20T07:42:08;3.20;;;1.90;;
36671;SDS011;22663;47.412;9.742;2022-11-20T07:44:34;5.18;;;2.67;;
36671;SDS011;22663;47.412;9.742;2022-11-20T07:47:01;5.72;;;2.88;;
36671;SDS011;22663;47.412;9.742;2022-11-20T07:49:27;6.88;;;2.60;;
36671;SDS011;22663;47.412;9.742;2022-11-20T07:51:53;3.38;;;1.95;;
36671;SDS011;22663;47.412;9.742;2022-11-20T07:54:19;2.05;;;1.70;;
36671;SDS011;22663;47.412;9.742;2022-11-20T07:56:46;3.15;;;1.60;;
36671;SDS011;22663;47.412;9.742;2022-11-20T07:59:12;1.90;;;1.33;;
36671;SDS011;22663;47.412;9.742;2022-11-20T08:01:39;1.52;;;1.08;;
36671;SDS011;22663;47.412;9.742;2022-11-20T08:04:05;3.38;;;1.20;;
36671;SDS011;22663;47.412;9.742;2022-11-20T08:06:31;0.90;;;0.70;;
36671;SDS011;22663;47.412;9.742;2022-11-20T08:08:57;1.60;;;0.93;;
36671;SDS011;22663;47.412;9.742;2022-11-20T08:11:23;1.02;;;0.70;;
36671;SDS011;22663;47.412;9.742;2022-11-20T08:14:08;4.05;;;1.10;;
36671;SDS011;22663;47.412;9.742;2022-11-20T08:16:37;2.55;;;1.20;;
36671;SDS011;22663;47.412;9.742;2022-11-20T08:19:03;2.65;;;1.35;;
36671;SDS011;22663;47.412;9.742;2022-11-20T08:21:29;2.45;;;1.17;;
36671;SDS011;22663;47.412;9.742;2022-11-20T08:23:56;1.80;;;1.10;;
36671;SDS011;22663;47.412;9.742;2022-11-20T08:26:22;2.50;;;0.98;;
36671;SDS011;22663;47.412;9.742;2022-11-20T08:28:49;1.67;;;0.85;;
36671;SDS011;22663;47.412;9.742;2022-11-20T08:31:15;2.40;;;1.00;;
36671;SDS011;22663;47.412;9.742;2022-11-20T08:33:41;1.58;;;0.82;;
36671;SDS011;22663;47.412;9.742;2022-11-20T08:36:07;1.60;;;0.65;;
36671;SDS011;22663;47.412;9.742;2022-11-20T08:38:33;0.85;;;0.70;;
36671;SDS011;22663;47.412;9.742;2022-11-20T08:41:00;1.77;;;1.13;;
36671;SDS011;22663;47.412;9.742;2022-11-20T08:43:45;1.38;;;0.80;;
36671;SDS011;22663;47.412;9.742;2022-11-20T08:46:11;1.80;;;0.90;;
36671;SDS011;22663;47.412;9.742;2022-11-20T08:48:37;1.30;;;0.50;;
36671;SDS011;22663;47.412;9.742;2022-11-20T08:51:03;0.82;;;0.50;;
36671;SDS011;22663;47.412;9.742;2022-11-20T08:53:29;0.55;;;0.40;;
36671;SDS011;22663;47.412;9.742;2022-11-20T08:55:58;0.80;;;0.50;;
36671;SDS011;22663;47.412;9.742;2022-11-20T08:58:25;1.27;;;0.85;;
36671;SDS011;22663;47.412;9.742;2022-11-20T09:00:51;2.88;;;1.10;;
36671;SDS011;22663;47.412;9.742;2022-11-20T09:03:17;2.85;;;1.80;;
36671;SDS011;22663;47.412;9.742;2022-11-20T09:05:43;4.35;;;2.25;;
36671;SDS011;22663;47.412;9.742;2022-11-20T09:08:10;2.20;;;1.48;;
36671;SDS011;22663;47.412;9.742;2022-11-20T09:10:36;3.28;;;2.03;;
36671;SDS011;22663;47.412;9.742;2022-11-20T09:13:04;1.50;;;1.10;;
36671;SDS011;22663;47.412;9.742;2022-11-20T09:15:31;2.47;;;1.70;;
36671;SDS011;22663;47.412;9.742;2022-11-20T09:17:58;2.90;;;2.13;;
36671;SDS011;22663;47.412;9.742;2022-11-20T09:20:25;2.70;;;2.08;;
36671;SDS011;22663;47.412;9.742;2022-11-20T09:22:51;3.28;;;2.78;;
36671;SDS011;22663;47.412;9.742;2022-11-20T09:25:17;1.63;;;0.90;;
36671;SDS011;22663;47.412;9.742;2022-11-20T09:27:43;1.52;;;0.70;;
36671;SDS011;22663;47.412;9.742;2022-11-20T09:30:13;1.65;;;0.70;;
36671;SDS011;22663;47.412;9.742;2022-11-20T09:32:40;1.08;;;0.68;;
36671;SDS011;22663;47.412;9.742;2022-11-20T09:35:06;1.02;;;0.77;;
36671;SDS011;22663;47.412;9.742;2022-11-20T09:37:32;1.48;;;0.80;;
36671;SDS011;22663;47.412;9.742;2022-11-20T09:39:59;2.65;;;1.10;;
36671;SDS011;22663;47.412;9.742;2022-11-20T09:50:07;2.70;;;1.50;;
36671;SDS011;22663;47.412;9.742;2022-11-20T09:52:47;3.88;;;2.92;;
36671;SDS011;22663;47.412;9.742;2022-11-20T09:55:15;3.88;;;3.17;;
36671;SDS011;22663;47.412;9.742;2022-11-20T09:57:42;3.67;;;2.92;;
36671;SDS011;22663;47.412;9.742;2022-11-20T10:00:11;3.92;;;2.88;;
36671;SDS011;22663;47.412;9.742;2022-11-20T10:02:42;2.95;;;2.60;;
36671;SDS011;22663;47.412;9.742;2022-11-20T10:18:37;6.05;;;3.58;;
36671;SDS011;22663;47.412;9.742;2022-11-20T10:26:17;4.00;;;2.63;;
36671;SDS011;22663;47.412;9.742;2022-11-20T10:28:53;3.88;;;2.95;;
36671;SDS011;22663;47.412;9.742;2022-11-20T10:31:40;5.63;;;3.63;;
36671;SDS011;22663;47.412;9.742;2022-11-20T10:34:29;7.30;;;3.25;;
36671;SDS011;22663;47.412;9.742;2022-11-20T10:37:01;3.75;;;2.72;;
36671;SDS011;22663;47.412;9.742;2022-11-20T10:39:31;3.60;;;2.72;;
36671;SDS011;22663;47.412;9.742;2022-11-20T10:41:58;3.38;;;2.17;;
36671;SDS011;22663;47.412;9.742;2022-11-20T10:44:26;4.07;;;2.50;;
36671;SDS011;22663;47.412;9.742;2022-11-20T10:47:15;2.50;;;2.15;;
36671;SDS011;22663;47.412;9.742;2022-11-20T10:49:42;2.60;;;2.05;;
36671;SDS011;22663;47.412;9.742;2022-11-20T10:52:11;3.63;;;2.03;;
36671;SDS011;22663;47.412;9.742;2022-11-20T10:54:41;4.90;;;2.22;;
36671;SDS011;22663;47.412;9.742;2022-11-20T10:59:44;4.90;;;2.83;;
36671;SDS011;22663;47.412;9.742;2022-11-20T11:02:15;4.05;;;2.53;;
36671;SDS011;22663;47.412;9.742;2022-11-20T11:04:51;3.55;;;2.13;;
36671;SDS011;22663;47.412;9.742;2022-11-20T11:07:27;5.05;;;2.38;;
36671;SDS011;22663;47.412;9.742;2022-11-20T11:09:56;3.78;;;2.50;;
36671;SDS011;22663;47.412;9.742;2022-11-20T11:12:24;3.72;;;1.98;;
36671;SDS011;22663;47.412;9.742;2022-11-20T11:14:51;2.42;;;1.98;;
36671;SDS011;22663;47.412;9.742;2022-11-20T11:17:27;2.50;;;1.80;;
36671;SDS011;22663;47.412;9.742;2022-11-20T11:20:00;3.85;;;2.22;;
36671;SDS011;22663;47.412;9.742;2022-11-20T11:22:27;4.22;;;2.55;;
36671;SDS011;22663;47.412;9.742;2022-11-20T11:24:54;2.85;;;1.80;;
36671;SDS011;22663;47.412;9.742;2022-11-20T11:27:20;2.10;;;1.58;;
36671;SDS011;22663;47.412;9.742;2022-11-20T11:29:46;1.58;;;1.17;;
36671;SDS011;22663;47.412;9.742;2022-11-20T11:32:13;2.35;;;1.50;;
36671;SDS011;22663;47.412;9.742;2022-11-20T11:34:39;1.48;;;1.20;;
36671;SDS011;22663;47.412;9.742;2022-11-20T11:37:10;1.17;;;0.82;;
36671;SDS011;22663;47.412;9.742;2022-11-20T11:39:38;1.08;;;0.68;;
36671;SDS011;22663;47.412;9.742;2022-11-20T11:42:07;1.75;;;1.00;;
36671;SDS011;22663;47.412;9.742;2022-11-20T11:44:37;2.05;;;0.98;;
36671;SDS011;22663;47.412;9.742;2022-11-20T11:55:15;1.10;;;0.88;;
36671;SDS011;22663;47.412;9.742;2022-11-20T12:00:15;1.55;;;0.88;;
36671;SDS011;22663;47.412;9.742;2022-11-20T12:05:27;3.10;;;1.08;;
36671;SDS011;22663;47.412;9.742;2022-11-20T12:13:28;2.55;;;1.23;;
36671;SDS011;22663;47.412;9.742;2022-11-20T12:15:55;2.40;;;1.20;;
36671;SDS011;22663;47.412;9.742;2022-11-20T12:18:21;1.58;;;1.30;;
36671;SDS011;22663;47.412;9.742;2022-11-20T12:25:58;2.38;;;1.13;;
36671;SDS011;22663;47.412;9.742;2022-11-20T12:36:40;1.52;;;1.02;;
36671;SDS011;22663;47.412;9.742;2022-11-20T12:39:27;1.92;;;1.30;;
36671;SDS011;22663;47.412;9.742;2022-11-20T12:44:57;1.58;;;1.38;;
36671;SDS011;22663;47.412;9.742;2022-11-20T12:52:37;2.63;;;1.48;;
36671;SDS011;22663;47.412;9.742;2022-11-20T13:05:18;1.88;;;1.27;;
36671;SDS011;22663;47.412;9.742;2022-11-20T13:07:46;1.70;;;1.40;;
36671;SDS011;22663;47.412;9.742;2022-11-20T13:10:33;2.65;;;1.50;;
36671;SDS011;22663;47.412;9.742;2022-11-20T13:13:02;1.48;;;1.25;;
36671;SDS011;22663;47.412;9.742;2022-11-20T13:17:59;3.25;;;1.42;;
36671;SDS011;22663;47.412;9.742;2022-11-20T13:20:25;2.65;;;1.40;;
36671;SDS011;22663;47.412;9.742;2022-11-20T13:22:53;1.30;;;1.10;;
36671;SDS011;22663;47.412;9.742;2022-11-20T13:27:49;2.33;;;1.30;;
36671;SDS011;22663;47.412;9.742;2022-11-20T13:30:16;1.65;;;1.13;;
36671;SDS011;22663;47.412;9.742;2022-11-20T13:33:00;2.25;;;1.10;;
36671;SDS011;22663;47.412;9.742;2022-11-20T13:35:29;2.35;;;1.05;;
36671;SDS011;22663;47.412;9.742;2022-11-20T13:38:00;1.70;;;0.98;;
36671;SDS011;22663;47.412;9.742;2022-11-20T13:40:26;1.33;;;0.82;;
36671;SDS011;22663;47.412;9.742;2022-11-20T13:45:37;1.45;;;1.10;;
36671;SDS011;22663;47.412;9.742;2022-11-20T13:48:04;2.42;;;1.50;;
36671;SDS011;22663;47.412;9.742;2022-11-20T13:50:48;2.47;;;1.30;;
36671;SDS011;22663;47.412;9.742;2022-11-20T13:56:06;1.85;;;1.00;;
36671;SDS011;22663;47.412;9.742;2022-11-20T13:58:40;1.25;;;1.00;;
36671;SDS011;22663;47.412;9.742;2022-11-20T14:03:36;1.13;;;0.80;;
36671;SDS011;22663;47.412;9.742;2022-11-20T14:06:05;1.00;;;0.70;;
36671;SDS011;22663;47.412;9.742;2022-11-20T14:11:12;2.97;;;1.00;;
36671;SDS011;22663;47.412;9.742;2022-11-20T14:13:39;1.02;;;0.70;;
36671;SDS011;22663;47.412;9.742;2022-11-20T14:16:05;3.17;;;1.48;;
36671;SDS011;22663;47.412;9.742;2022-11-20T14:18:31;3.30;;;0.90;;
36671;SDS011;22663;47.412;9.742;2022-11-20T14:20:59;0.82;;;0.60;;
36671;SDS011;22663;47.412;9.742;2022-11-20T14:23:27;1.92;;;0.93;;
36671;SDS011;22663;47.412;9.742;2022-11-20T14:25:53;1.00;;;0.90;;
36671;SDS011;22663;47.412;9.742;2022-11-20T14:28:25;0.90;;;0.60;;
36671;SDS011;22663;47.412;9.742;2022-11-20T14:30:51;1.30;;;0.97;;
36671;SDS011;22663;47.412;9.742;2022-11-20T14:33:17;3.78;;;0.93;;
36671;SDS011;22663;47.412;9.742;2022-11-20T14:35:48;2.03;;;1.00;;
36671;SDS011;22663;47.412;9.742;2022-11-20T14:38:16;2.60;;;1.00;;
36671;SDS011;22663;47.412;9.742;2022-11-20T14:40:43;2.47;;;0.95;;
36671;SDS011;22663;47.412;9.742;2022-11-20T14:45:48;1.55;;;0.73;;
36671;SDS011;22663;47.412;9.742;2022-11-20T14:48:18;1.77;;;1.00;;
36671;SDS011;22663;47.412;9.742;2022-11-20T14:50:44;1.98;;;0.90;;
36671;SDS011;22663;47.412;9.742;2022-11-20T14:53:10;1.35;;;0.60;;
36671;SDS011;22663;47.412;9.742;2022-11-20T14:55:37;1.35;;;0.88;;
36671;SDS011;22663;47.412;9.742;2022-11-20T14:58:26;1.45;;;1.05;;
36671;SDS011;22663;47.412;9.742;2022-11-20T15:01:11;1.58;;;1.02;;
36671;SDS011;22663;47.412;9.742;2022-11-20T15:03:39;1.35;;;1.08;;
36671;SDS011;22663;47.412;9.742;2022-11-20T15:06:06;1.85;;;0.93;;
36671;SDS011;22663;47.412;9.742;2022-11-20T15:08:34;1.40;;;0.95;;
36671;SDS011;22663;47.412;9.742;2022-11-20T15:11:00;1.83;;;1.00;;
36671;SDS011;22663;47.412;9.742;2022-11-20T15:13:29;3.00;;;1.45;;
36671;SDS011;22663;47.412;9.742;2022-11-20T15:15:56;2.13;;;1.23;;
36671;SDS011;22663;47.412;9.742;2022-11-20T15:18:30;3.53;;;1.50;;
36671;SDS011;22663;47.412;9.742;2022-11-20T15:20:57;2.35;;;1.02;;
36671;SDS011;22663;47.412;9.742;2022-11-20T15:23:24;2.17;;;1.05;;
36671;SDS011;22663;47.412;9.742;2022-11-20T15:25:51;3.05;;;0.90;;
36671;SDS011;22663;47.412;9.742;2022-11-20T15:28:21;3.28;;;1.58;;
36671;SDS011;22663;47.412;9.742;2022-11-20T15:30:48;1.65;;;0.98;;
36671;SDS011;22663;47.412;9.742;2022-11-20T15:33:15;1.90;;;0.88;;
36671;SDS011;22663;47.412;9.742;2022-11-20T15:35:41;2.88;;;1.27;;
36671;SDS011;22663;47.412;9.742;2022-11-20T15:38:08;3.67;;;2.25;;
36671;SDS011;22663;47.412;9.742;2022-11-20T15:40:34;3.25;;;1.83;;
36671;SDS011;22663;47.412;9.742;2022-11-20T15:43:00;2.92;;;1.50;;
36671;SDS011;22663;47.412;9.742;2022-11-20T15:45:38;2.88;;;1.25;;
36671;SDS011;22663;47.412;9.742;2022-11-20T15:48:27;1.40;;;1.10;;
36671;SDS011;22663;47.412;9.742;2022-11-20T15:51:03;2.17;;;0.90;;
36671;SDS011;22663;47.412;9.742;2022-11-20T15:53:31;1.65;;;1.00;;
36671;SDS011;22663;47.412;9.742;2022-11-20T15:55:57;1.10;;;0.63;;
36671;SDS011;22663;47.412;9.742;2022-11-20T15:58:23;1.10;;;0.60;;
36671;SDS011;22663;47.412;9.742;2022-11-20T16:00:50;1.42;;;0.80;;
36671;SDS011;22663;47.412;9.742;2022-11-20T16:03:16;2.92;;;1.25;;
36671;SDS011;22663;47.412;9.742;2022-11-20T16:05:42;2.38;;;1.25;;
36671;SDS011;22663;47.412;9.742;2022-11-20T16:08:08;2.88;;;1.45;;
36671;SDS011;22663;47.412;9.742;2022-11-20T16:10:35;3.25;;;1.92;;
36671;SDS011;22663;47.412;9.742;2022-11-20T16:13:01;2.50;;;1.77;;
36671;SDS011;22663;47.412;9.742;2022-11-20T16:15:46;2.10;;;1.30;;
36671;SDS011;22663;47.412;9.742;2022-11-20T16:18:19;2.47;;;1.45;;
36671;SDS011;22663;47.412;9.742;2022-11-20T16:20:46;2.22;;;1.27;;
36671;SDS011;22663;47.412;9.742;2022-11-20T16:23:12;1.92;;;0.60;;
36671;SDS011;22663;47.412;9.742;2022-11-20T16:25:39;2.15;;;0.82;;
36671;SDS011;22663;47.412;9.742;2022-11-20T16:28:05;1.23;;;0.70;;
36671;SDS011;22663;47.412;9.742;2022-11-20T16:30:31;1.08;;;0.60;;
36671;SDS011;22663;47.412;9.742;2022-11-20T16:32:58;1.08;;;0.80;;
36671;SDS011;22663;47.412;9.742;2022-11-20T16:35:28;2.85;;;0.82;;
36671;SDS011;22663;47.412;9.742;2022-11-20T16:37:54;1.52;;;1.08;;
36671;SDS011;22663;47.412;9.742;2022-11-20T16:40:20;1.17;;;0.90;;